createdAt,value
2023-05-25T00:01:35.969Z,12.45
2023-05-25T00:04:38.843Z,12.48
2023-05-25T00:07:41.698Z,12.48
2023-05-25T00:10:44.471Z,12.45
2023-05-25T00:13:47.590Z,12.47
2023-05-25T00:16:52.018Z,12.48
2023-05-25T00:19:58.478Z,12.45
2023-05-25T00:23:02.902Z,12.39
2023-05-25T00:26:06.185Z,12.38
2023-05-25T00:29:08.978Z,12.41
2023-05-25T00:32:11.744Z,12.35
2023-05-25T00:35:15.571Z,12.35
2023-05-25T00:38:19.056Z,12.39
2023-05-25T00:41:22.824Z,12.35
2023-05-25T00:44:25.564Z,12.22
2023-05-25T00:47:28.784Z,12.24
2023-05-25T00:50:38.179Z,12.22
2023-05-25T00:53:41.762Z,12.26
2023-05-25T00:56:52.017Z,12.23
2023-05-25T00:59:55.065Z,12.27
2023-05-25T01:03:00.238Z,12.33
2023-05-25T01:06:04.296Z,12.30
2023-05-25T01:09:09.419Z,12.29
2023-05-25T01:12:12.392Z,12.23
2023-05-25T01:15:16.767Z,12.27
2023-05-25T01:18:20.598Z,12.27
2023-05-25T01:21:48.336Z,12.16
2023-05-25T01:24:57.669Z,12.22
2023-05-25T01:28:12.281Z,12.14
2023-05-25T01:31:16.694Z,12.24
2023-05-25T01:34:20.711Z,12.23
2023-05-25T01:37:26.864Z,12.12
2023-05-25T01:40:30.002Z,12.17
2023-05-25T01:43:32.979Z,12.21
2023-05-25T01:46:40.256Z,12.10
2023-05-25T01:50:02.756Z,12.12
2023-05-25T01:53:10.814Z,12.17
2023-05-25T01:56:14.476Z,12.17
2023-05-25T01:59:21.085Z,12.15
2023-05-25T02:02:25.036Z,12.10
2023-05-25T02:05:28.562Z,12.17
2023-05-25T02:08:31.565Z,12.18
2023-05-25T02:11:36.077Z,12.28
2023-05-25T02:14:38.887Z,12.21
2023-05-25T02:17:41.625Z,12.17
2023-05-25T02:20:45.268Z,12.20
2023-05-25T02:23:48.364Z,12.20
2023-05-25T02:26:51.948Z,12.14
2023-05-25T02:29:54.881Z,12.05
2023-05-25T02:33:02.935Z,12.03
2023-05-25T02:36:06.304Z,11.97
2023-05-25T02:39:09.645Z,12.08
2023-05-25T02:42:14.308Z,11.97
2023-05-25T02:45:17.980Z,12.04
2023-05-25T02:48:22.422Z,12.11
2023-05-25T02:51:25.275Z,12.07
2023-05-25T02:54:28.200Z,12.09
2023-05-25T02:57:31.167Z,12.06
2023-05-25T03:00:35.446Z,12.11
2023-05-25T03:03:38.313Z,12.13
2023-05-25T03:06:41.709Z,12.14
2023-05-25T03:09:48.424Z,12.15
2023-05-25T03:12:51.789Z,12.16
2023-05-25T03:15:54.882Z,12.16
2023-05-25T03:18:59.303Z,12.25
2023-05-25T03:22:03.899Z,12.34
2023-05-25T03:25:08.714Z,12.30
2023-05-25T03:28:11.930Z,12.36
2023-05-25T03:31:14.854Z,12.40
2023-05-25T03:34:18.153Z,12.49
2023-05-25T03:37:21.356Z,12.58
2023-05-25T03:40:24.370Z,12.68
2023-05-25T03:43:27.214Z,12.76
2023-05-25T03:46:30.765Z,12.76
2023-05-25T03:49:34.005Z,12.93
2023-05-25T03:52:36.869Z,12.93
2023-05-25T03:55:40.079Z,12.95
2023-05-25T03:58:43.409Z,13.52
2023-05-25T04:01:46.405Z,15.32
2023-05-25T04:04:51.474Z,16.81
2023-05-25T04:07:54.215Z,17.73
2023-05-25T04:10:57.881Z,18.37
2023-05-25T04:14:00.890Z,17.90
2023-05-25T04:17:06.221Z,17.03
2023-05-25T04:20:10.332Z,15.89
2023-05-25T04:23:13.401Z,14.95
2023-05-25T04:26:18.679Z,15.22
2023-05-25T04:29:24.144Z,15.77
2023-05-25T04:32:46.234Z,15.43
2023-05-25T04:36:05.931Z,15.35
2023-05-25T04:39:09.952Z,15.27
2023-05-25T04:42:17.472Z,14.98
2023-05-25T04:45:21.843Z,14.92
2023-05-25T04:48:25.088Z,15.07
2023-05-25T04:51:28.751Z,15.02
2023-05-25T04:54:32.698Z,15.30
2023-05-25T04:57:38.422Z,15.45
2023-05-25T05:00:42.038Z,15.50
2023-05-25T05:03:46.164Z,15.37
2023-05-25T05:06:50.120Z,15.75
2023-05-25T05:09:56.016Z,15.49
2023-05-25T05:12:59.398Z,15.48
2023-05-25T05:16:03.020Z,15.47
2023-05-25T05:19:06.063Z,15.43
2023-05-25T05:22:10.162Z,15.51
2023-05-25T05:25:14.551Z,15.91
2023-05-25T05:28:17.517Z,16.03
2023-05-25T05:31:22.158Z,16.06
2023-05-25T05:34:25.081Z,15.99
2023-05-25T05:37:27.853Z,16.12
2023-05-25T05:40:30.805Z,16.61
2023-05-25T05:43:33.905Z,16.33
2023-05-25T05:46:37.767Z,16.34
2023-05-25T05:49:41.098Z,16.14
2023-05-25T05:52:44.133Z,16.25
2023-05-25T05:55:49.593Z,16.40
2023-05-25T05:58:55.035Z,16.31
2023-05-25T06:01:57.909Z,16.48
2023-05-25T06:05:02.103Z,16.29
2023-05-25T06:08:06.148Z,16.24
2023-05-25T06:11:12.679Z,16.70
2023-05-25T06:14:16.182Z,16.55
2023-05-25T06:17:19.591Z,16.57
2023-05-25T06:20:25.333Z,16.88
2023-05-25T06:23:28.332Z,16.91
2023-05-25T06:26:32.370Z,17.23
2023-05-25T06:29:35.379Z,16.86
2023-05-25T06:32:38.783Z,17.12
2023-05-25T06:35:42.617Z,17.49
2023-05-25T06:38:47.602Z,17.74
2023-05-25T06:41:51.426Z,18.09
2023-05-25T06:45:05.471Z,17.81
2023-05-25T06:48:08.792Z,17.58
2023-05-25T06:51:11.964Z,17.78
2023-05-25T06:54:15.949Z,17.54
2023-05-25T06:57:18.989Z,17.66
2023-05-25T07:00:22.168Z,17.76
2023-05-25T07:03:25.098Z,17.91
2023-05-25T07:06:28.077Z,17.96
2023-05-25T07:09:31.216Z,17.90
2023-05-25T07:12:34.040Z,18.06
2023-05-25T07:15:36.820Z,17.99
2023-05-25T07:18:45.427Z,17.79
2023-05-25T07:21:48.426Z,18.24
2023-05-25T07:24:51.467Z,18.37
2023-05-25T07:27:55.799Z,18.34
2023-05-25T07:30:59.194Z,18.41
2023-05-25T07:34:02.437Z,18.48
2023-05-25T07:37:05.302Z,18.29
2023-05-25T07:40:08.850Z,18.55
2023-05-25T07:43:11.916Z,18.21
2023-05-25T07:46:15.109Z,18.43
2023-05-25T07:49:18.079Z,18.38
2023-05-25T07:52:21.160Z,18.82
2023-05-25T07:55:24.026Z,18.71
2023-05-25T07:58:26.869Z,18.19
2023-05-25T08:01:29.713Z,17.75
2023-05-25T08:04:34.238Z,18.26
2023-05-25T08:07:38.634Z,18.30
2023-05-25T08:10:43.019Z,18.67
2023-05-25T08:13:46.014Z,18.53
2023-05-25T08:16:48.945Z,18.42
2023-05-25T08:19:51.873Z,18.38
2023-05-25T08:22:55.174Z,18.48
2023-05-25T08:25:57.935Z,18.79
2023-05-25T08:29:02.075Z,18.77
2023-05-25T08:32:05.267Z,18.75
2023-05-25T08:35:08.404Z,18.59
2023-05-25T08:38:11.408Z,18.65
2023-05-25T08:41:14.658Z,18.74
2023-05-25T08:44:17.814Z,18.68
2023-05-25T08:47:23.607Z,18.87
2023-05-25T08:50:27.957Z,18.73
2023-05-25T08:53:38.502Z,18.75
2023-05-25T08:56:55.976Z,18.75
2023-05-25T09:00:11.362Z,18.90
2023-05-25T09:03:20.944Z,19.01
2023-05-25T09:06:26.411Z,19.45
2023-05-25T09:09:31.861Z,19.06
2023-05-25T09:12:36.798Z,19.22
2023-05-25T09:15:39.678Z,19.32
2023-05-25T09:18:42.784Z,19.17
2023-05-25T09:21:46.109Z,19.22
2023-05-25T09:24:49.416Z,19.40
2023-05-25T09:27:52.278Z,19.15
2023-05-25T09:30:55.739Z,19.06
2023-05-25T09:34:00.727Z,19.18
2023-05-25T09:37:14.798Z,19.06
2023-05-25T09:40:17.905Z,18.92
2023-05-25T09:43:36.334Z,18.88
2023-05-25T09:46:45.605Z,19.31
2023-05-25T09:49:50.344Z,19.44
2023-05-25T09:53:00.063Z,19.40
2023-05-25T09:56:04.122Z,19.41
2023-05-25T09:59:07.574Z,19.96
2023-05-25T10:02:10.391Z,19.51
2023-05-25T10:05:13.533Z,19.60
2023-05-25T10:08:18.785Z,19.58
2023-05-25T10:11:23.060Z,19.60
2023-05-25T10:14:29.726Z,19.53
2023-05-25T10:17:36.823Z,19.58
2023-05-25T10:20:39.541Z,19.48
2023-05-25T10:23:51.726Z,19.34
2023-05-25T10:26:55.311Z,19.87
2023-05-25T10:29:59.735Z,19.57
2023-05-25T10:33:02.951Z,19.74
2023-05-25T10:36:10.854Z,19.82
2023-05-25T10:39:14.669Z,19.73
2023-05-25T10:42:19.013Z,19.77
2023-05-25T10:45:23.100Z,20.17
2023-05-25T10:48:36.905Z,20.37
2023-05-25T10:51:41.296Z,20.04
2023-05-25T10:54:44.882Z,20.17
2023-05-25T10:57:47.695Z,20.20
2023-05-25T11:01:00.942Z,20.57
2023-05-25T11:04:07.069Z,20.72
2023-05-25T11:07:15.020Z,20.66
2023-05-25T11:10:17.849Z,20.54
2023-05-25T11:13:44.205Z,20.48
2023-05-25T11:17:16.717Z,20.76
2023-05-25T11:20:28.372Z,20.85
2023-05-25T11:23:31.964Z,20.46
2023-05-25T11:26:35.922Z,20.97
2023-05-25T11:29:40.325Z,20.72
2023-05-25T11:32:50.970Z,20.82
2023-05-25T11:35:55.596Z,20.99
2023-05-25T11:39:08.517Z,20.90
2023-05-25T11:42:15.826Z,20.34
2023-05-25T11:45:18.620Z,21.07
2023-05-25T11:48:21.527Z,20.92
2023-05-25T11:51:27.090Z,21.03
2023-05-25T11:54:31.313Z,20.94
2023-05-25T11:57:34.156Z,21.15
2023-05-25T12:00:37.281Z,20.88
2023-05-25T12:03:40.562Z,20.95
2023-05-25T12:06:43.574Z,21.67
2023-05-25T12:09:46.507Z,21.18
2023-05-25T12:12:53.672Z,21.55
2023-05-25T12:15:58.071Z,21.40
2023-05-25T12:19:02.366Z,21.41
2023-05-25T12:22:05.588Z,21.50
2023-05-25T12:25:42.412Z,21.33
2023-05-25T12:29:06.765Z,21.86
2023-05-25T12:32:09.647Z,21.65
2023-05-25T12:35:12.512Z,21.97
2023-05-25T12:38:22.136Z,21.82
2023-05-25T12:41:25.299Z,21.52
2023-05-25T12:44:35.360Z,22.06
2023-05-25T12:47:40.268Z,22.02
2023-05-25T12:50:58.918Z,21.53
2023-05-25T12:54:03.393Z,21.94
2023-05-25T12:57:07.123Z,22.15
2023-05-25T13:00:11.077Z,22.07
2023-05-25T13:03:14.098Z,22.10
2023-05-25T13:06:17.215Z,22.53
2023-05-25T13:09:20.766Z,22.47
2023-05-25T13:12:23.619Z,22.54
2023-05-25T13:15:27.406Z,22.62
2023-05-25T13:18:30.328Z,22.66
2023-05-25T13:21:33.265Z,22.63
2023-05-25T13:24:36.775Z,22.78
2023-05-25T13:27:44.783Z,22.53
2023-05-25T13:30:47.843Z,22.35
2023-05-25T13:33:50.978Z,22.77
2023-05-25T13:36:53.861Z,23.26
2023-05-25T13:39:58.914Z,22.94
2023-05-25T13:43:02.017Z,23.05
2023-05-25T13:46:05.077Z,23.01
2023-05-25T13:49:08.113Z,22.61
2023-05-25T13:52:11.736Z,23.09
2023-05-25T13:55:14.890Z,22.88
2023-05-25T13:58:17.876Z,22.92
2023-05-25T14:01:21.192Z,23.40
2023-05-25T14:04:24.202Z,23.44
2023-05-25T14:07:27.470Z,23.07
2023-05-25T14:10:31.137Z,22.59
2023-05-25T14:13:34.698Z,22.57
2023-05-25T14:16:38.868Z,22.97
2023-05-25T14:19:41.769Z,22.98
2023-05-25T14:22:44.529Z,23.28
2023-05-25T14:25:49.067Z,23.12
2023-05-25T14:28:51.969Z,23.11
2023-05-25T14:31:54.857Z,22.82
2023-05-25T14:34:57.639Z,22.87
2023-05-25T14:38:00.448Z,23.11
2023-05-25T14:41:03.297Z,22.89
2023-05-25T14:44:06.538Z,22.94
2023-05-25T14:47:11.643Z,23.03
2023-05-25T14:50:14.897Z,23.42
2023-05-25T14:53:17.997Z,23.30
2023-05-25T14:56:25.501Z,22.64
2023-05-25T14:59:28.273Z,23.05
2023-05-25T15:02:31.174Z,23.06
2023-05-25T15:05:34.290Z,22.96
2023-05-25T15:08:37.627Z,23.14
2023-05-25T15:11:40.461Z,23.09
2023-05-25T15:14:43.361Z,23.02
2023-05-25T15:17:46.258Z,23.21
2023-05-25T15:20:49.595Z,22.65
2023-05-25T15:23:52.657Z,22.88
2023-05-25T15:26:55.547Z,22.88
2023-05-25T15:29:58.218Z,22.86
2023-05-25T15:33:03.660Z,23.03
2023-05-25T15:36:09.248Z,22.74
2023-05-25T15:39:13.601Z,22.63
2023-05-25T15:42:16.503Z,22.68
2023-05-25T15:45:19.832Z,22.91
2023-05-25T15:48:25.429Z,23.12
2023-05-25T15:51:29.225Z,22.60
2023-05-25T15:54:32.018Z,22.87
2023-05-25T15:57:35.161Z,22.62
2023-05-25T16:00:38.038Z,22.68
2023-05-25T16:03:43.399Z,22.62
2023-05-25T16:06:49.015Z,22.60
2023-05-25T16:09:51.707Z,22.54
2023-05-25T16:12:54.962Z,22.53
2023-05-25T16:15:57.951Z,22.62
2023-05-25T16:19:01.143Z,22.77
2023-05-25T16:22:04.125Z,22.63
2023-05-25T16:25:07.675Z,22.57
2023-05-25T16:28:10.714Z,22.26
2023-05-25T16:31:13.923Z,22.28
2023-05-25T16:34:16.629Z,21.88
2023-05-25T16:37:19.572Z,21.79
2023-05-25T16:40:22.543Z,21.64
2023-05-25T16:43:27.244Z,21.31
2023-05-25T16:46:30.496Z,21.38
2023-05-25T16:49:33.617Z,21.44
2023-05-25T16:52:36.742Z,21.32
2023-05-25T16:55:40.989Z,21.14
2023-05-25T16:58:44.142Z,21.06
2023-05-25T17:01:47.085Z,20.90
2023-05-25T17:04:50.071Z,20.84
2023-05-25T17:07:56.345Z,20.61
2023-05-25T17:10:59.675Z,20.42
2023-05-25T17:14:02.604Z,20.32
2023-05-25T17:17:05.781Z,20.49
2023-05-25T17:20:09.127Z,20.28
2023-05-25T17:23:12.031Z,20.09
2023-05-25T17:26:15.420Z,20.10
2023-05-25T17:29:18.653Z,19.97
2023-05-25T17:32:21.745Z,19.90
2023-05-25T17:35:24.729Z,19.84
2023-05-25T17:38:28.008Z,19.62
2023-05-25T17:41:31.442Z,19.49
2023-05-25T17:44:34.681Z,19.46
2023-05-25T17:47:38.756Z,19.17
2023-05-25T17:50:41.949Z,19.20
2023-05-25T17:53:45.171Z,19.01
2023-05-25T17:56:48.085Z,18.94
2023-05-25T17:59:51.004Z,18.68
2023-05-25T18:02:54.051Z,18.64
2023-05-25T18:05:57.296Z,18.55
2023-05-25T18:09:00.374Z,18.41
2023-05-25T18:12:04.356Z,18.30
2023-05-25T18:15:08.725Z,18.24
2023-05-25T18:18:11.640Z,18.17
2023-05-25T18:21:14.876Z,17.94
2023-05-25T18:24:17.929Z,17.92
2023-05-25T18:27:21.973Z,17.79
2023-05-25T18:30:25.445Z,17.53
2023-05-25T18:33:28.211Z,17.38
2023-05-25T18:36:33.343Z,17.20
2023-05-25T18:39:36.351Z,17.24
2023-05-25T18:42:40.285Z,17.06
2023-05-25T18:45:43.321Z,16.97
2023-05-25T18:48:46.938Z,16.81
2023-05-25T18:51:50.402Z,16.72
2023-05-25T18:54:53.783Z,16.48
2023-05-25T18:57:57.281Z,16.42
2023-05-25T19:01:00.442Z,16.22
2023-05-25T19:04:03.990Z,16.15
2023-05-25T19:07:07.010Z,16.10
2023-05-25T19:10:10.910Z,16.03
2023-05-25T19:13:13.922Z,15.96
2023-05-25T19:16:16.856Z,15.93
2023-05-25T19:19:19.800Z,15.87
2023-05-25T19:22:22.634Z,15.69
2023-05-25T19:25:25.728Z,15.79
2023-05-25T19:28:28.746Z,15.55
2023-05-25T19:31:32.108Z,15.62
2023-05-25T19:34:36.287Z,15.33
2023-05-25T19:37:41.274Z,14.96
2023-05-25T19:40:44.360Z,14.90
2023-05-25T19:43:47.683Z,14.76
2023-05-25T19:46:50.777Z,14.61
2023-05-25T19:49:53.743Z,14.48
2023-05-25T19:52:59.113Z,14.41
2023-05-25T19:56:03.771Z,14.27
2023-05-25T19:59:07.025Z,14.16
2023-05-25T20:02:10.023Z,14.07
2023-05-25T20:05:12.891Z,13.99
2023-05-25T20:08:15.959Z,14.03
2023-05-25T20:11:18.849Z,13.94
2023-05-25T20:14:22.475Z,13.90
2023-05-25T20:17:25.630Z,13.75
2023-05-25T20:20:28.740Z,13.76
2023-05-25T20:23:31.894Z,13.72
2023-05-25T20:26:37.117Z,13.68
2023-05-25T20:29:40.130Z,13.78
2023-05-25T20:32:45.492Z,13.74
2023-05-25T20:35:48.571Z,13.66
2023-05-25T20:38:51.701Z,13.65
2023-05-25T20:41:54.779Z,13.60
2023-05-25T20:44:57.750Z,13.62
2023-05-25T20:48:02.380Z,13.56
2023-05-25T20:51:07.789Z,13.56
2023-05-25T20:54:10.985Z,13.53
2023-05-25T20:57:14.856Z,13.48
2023-05-25T21:00:18.035Z,13.42
2023-05-25T21:03:21.401Z,13.43
2023-05-25T21:06:24.574Z,13.42
2023-05-25T21:09:27.496Z,13.37
2023-05-25T21:12:30.463Z,13.31
2023-05-25T21:15:33.225Z,13.35
2023-05-25T21:18:36.287Z,13.25
2023-05-25T21:21:39.578Z,13.27
2023-05-25T21:24:42.344Z,13.18
2023-05-25T21:27:45.209Z,13.24
2023-05-25T21:30:48.061Z,13.17
2023-05-25T21:33:51.498Z,13.19
2023-05-25T21:36:54.502Z,13.20
2023-05-25T21:39:57.186Z,13.04
2023-05-25T21:43:00.166Z,13.06
2023-05-25T21:46:03.223Z,13.05
2023-05-25T21:49:06.501Z,13.13
2023-05-25T21:52:09.977Z,13.03
2023-05-25T21:55:13.122Z,12.95
2023-05-25T21:58:18.046Z,12.98
2023-05-25T22:01:23.790Z,12.93
2023-05-25T22:04:26.933Z,12.91
2023-05-25T22:07:29.799Z,12.94
2023-05-25T22:10:32.819Z,12.95
2023-05-25T22:13:35.687Z,12.96
2023-05-25T22:16:38.551Z,12.91
2023-05-25T22:19:43.155Z,12.89
2023-05-25T22:22:47.725Z,12.93
2023-05-25T22:25:50.955Z,12.82
2023-05-25T22:28:53.780Z,12.86
2023-05-25T22:31:56.506Z,12.86
2023-05-25T22:34:59.206Z,12.85
2023-05-25T22:38:02.211Z,12.86
2023-05-25T22:41:04.943Z,12.77
2023-05-25T22:44:07.696Z,12.74
2023-05-25T22:47:10.909Z,12.73
2023-05-25T22:50:13.866Z,12.76
2023-05-25T22:53:19.077Z,12.73
2023-05-25T22:56:23.101Z,12.73
2023-05-25T22:59:25.876Z,12.69
2023-05-25T23:02:28.742Z,12.72
2023-05-25T23:05:31.623Z,12.71
2023-05-25T23:08:34.357Z,12.75
2023-05-25T23:11:37.310Z,12.65
2023-05-25T23:14:41.005Z,12.67
2023-05-25T23:17:43.989Z,12.67
2023-05-25T23:20:46.705Z,12.75
2023-05-25T23:23:49.696Z,12.65
2023-05-25T23:26:52.503Z,12.67
2023-05-25T23:29:55.337Z,12.65
2023-05-25T23:32:58.257Z,12.66
2023-05-25T23:36:01.276Z,12.61
2023-05-25T23:39:04.494Z,12.65
2023-05-25T23:42:07.464Z,12.62
2023-05-25T23:45:10.800Z,12.62
2023-05-25T23:48:13.641Z,12.63
2023-05-25T23:51:16.702Z,12.62
2023-05-25T23:54:19.466Z,12.56
2023-05-25T23:57:22.188Z,12.62
